createdAt,value
2022-11-12T00:00:01.525Z,10.57
2022-11-12T00:09:54.491Z,10.77
2022-11-12T00:14:55.392Z,11.60
2022-11-12T00:19:52.081Z,10.73
2022-11-12T00:29:52.832Z,9.75
2022-11-12T00:35:00.294Z,9.65
2022-11-12T00:40:08.018Z,9.27
2022-11-12T00:45:05.010Z,8.57
2022-11-12T00:50:12.254Z,8.98
2022-11-12T00:55:11.128Z,8.73
2022-11-12T01:00:08.184Z,8.50
2022-11-12T01:05:16.581Z,9.15
2022-11-12T01:10:16.638Z,9.15
2022-11-12T01:15:13.275Z,8.98
2022-11-12T01:20:21.095Z,8.80
2022-11-12T01:25:23.948Z,8.02
2022-11-12T01:30:26.967Z,8.05
2022-11-12T01:35:31.072Z,8.95
2022-11-12T01:40:32.953Z,8.57
2022-11-12T01:45:34.828Z,8.23
2022-11-12T01:50:41.006Z,7.75
2022-11-12T01:55:47.879Z,7.38
2022-11-12T02:00:52.110Z,7.75
2022-11-12T02:05:56.128Z,8.07
2022-11-12T02:10:53.980Z,7.53
2022-11-12T02:16:03.424Z,7.63
2022-11-12T02:21:36.438Z,7.32
2022-11-12T02:26:39.548Z,7.97
2022-11-12T02:31:39.125Z,8.23
2022-11-12T02:36:35.574Z,7.47
2022-11-12T02:41:39.967Z,7.57
2022-11-12T02:46:36.450Z,7.60
2022-11-12T02:51:32.887Z,7.97
2022-11-12T02:56:29.357Z,8.27
2022-11-12T03:01:25.877Z,7.75
2022-11-12T03:06:22.428Z,7.63
2022-11-12T03:11:19.172Z,8.98
2022-11-12T03:21:12.949Z,7.35
2022-11-12T03:26:09.632Z,7.65
2022-11-12T03:31:06.190Z,7.97
2022-11-12T03:36:03.068Z,7.18
2022-11-12T03:45:55.815Z,6.63
2022-11-12T03:50:52.292Z,7.70
2022-11-12T03:55:57.656Z,7.22
2022-11-12T04:00:54.257Z,7.50
2022-11-12T04:06:09.674Z,6.72
2022-11-12T04:11:15.247Z,6.90
2022-11-12T04:16:34.983Z,6.93
2022-11-12T04:21:53.363Z,6.90
2022-11-12T04:26:53.655Z,7.40
2022-11-12T04:31:50.088Z,7.93
2022-11-12T04:36:46.537Z,7.80
2022-11-12T04:42:01.212Z,7.40
2022-11-12T04:46:57.674Z,8.02
2022-11-12T04:52:06.957Z,7.70
2022-11-12T04:57:03.416Z,7.93
2022-11-12T05:01:59.920Z,8.27
2022-11-12T05:06:57.084Z,8.18
2022-11-12T05:11:57.361Z,8.43
2022-11-12T05:16:53.784Z,8.18
2022-11-12T05:22:05.165Z,8.88
2022-11-12T05:27:02.260Z,8.52
2022-11-12T05:31:58.698Z,9.18
2022-11-12T05:36:55.176Z,8.25
2022-11-12T05:42:11.813Z,8.90
2022-11-12T05:47:09.252Z,8.63
2022-11-12T05:52:05.692Z,8.45
2022-11-12T05:57:02.133Z,8.35
2022-11-12T06:01:58.907Z,8.73
2022-11-12T06:06:55.417Z,8.85
2022-11-12T06:11:51.970Z,8.90
2022-11-12T06:16:48.539Z,8.32
2022-11-12T06:21:51.934Z,8.18
2022-11-12T06:26:49.800Z,8.55
2022-11-12T06:31:52.252Z,8.52
2022-11-12T06:36:49.171Z,8.55
2022-11-12T06:46:42.024Z,8.13
2022-11-12T06:51:39.806Z,8.55
2022-11-12T06:56:36.287Z,8.32
2022-11-12T07:01:32.824Z,8.57
2022-11-12T07:06:29.307Z,8.32
2022-11-12T07:11:25.762Z,9.00
2022-11-12T07:16:22.415Z,8.80
2022-11-12T15:33:58.453Z,8.75
